Nearby METAR Reports

 

EGQL - Leuchars Raf, United Kingdom
Distance from station: SW 17km
Updated: 11/04/2021 15:50
Nearby showers, Mostly cloudy
Nearby showers, Mostly cloudy
 Wind from NNE
Wind: NNE 8 mph , 13 km/h, Gust: 20 mph , 31 km/h
Temperature: 5°C
Wind Chill: 2°C
Dew Point: -7°C
Humidity: 42%
Barometer: 1020 hPa
Summary: Nearby Showers
Clouds: Mostly cloudy
Visibility: 6 miles , 10 km
Cloud details: Few Clouds 1067 m
Mostly cloudy 1524 m
2021/04/11 13:50 EGQL 111350Z 02007G17KT 9999 VCSH FEW035CB BKN050 05/M07 Q1020 RMK BLU
EGPN - Dundee/Riverside, United Kingdom
Distance from station: WSW 20km
Updated: 11/04/2021 16:20
Nearby showers, Few clouds
Nearby showers, Few clouds
 Wind from varies
Wind: varies 3 mph , 6 km/h
Temperature: 8°C
Dew Point: -3°C
Humidity: 46%
Barometer: 1020 hPa
Summary: Nearby Showers
Clouds: Few Clouds
Visibility: 6 miles , 10 km
Cloud details: Few Clouds 305 m
2021/04/11 14:20 EGPN 111420Z VRB03KT 9999 VCSH FEW010CB 08/M03 Q1020 RESHSN
 
EGPH - Edinburgh Airpor, United Kingdom
Distance from station: SSW 74km
Updated: 11/04/2021 16:20
Light rain, Mostly cloudy
Light rain, Mostly cloudy
 Wind from ENE
Wind: ENE 16 mph , 26 km/h
Temperature: 3°C
Wind Chill: -2°C
Dew Point: -2°C
Humidity: 70%
Barometer: 1021 hPa
Summary: Light rain
Clouds: Mostly cloudy
Visibility: 6 miles , 10 km
Cloud details: Few Clouds 213 m
Mostly cloudy 945 m
2021/04/11 14:20 EGPH 111420Z 06014KT 9999 -RA FEW007 BKN031 03/M02 Q1021
EGPD - Aberdeen/Dyce, United Kingdom
Distance from station: NNE 82km
Updated: 11/04/2021 16:20
Light snow, Mostly cloudy
Light snow, Mostly cloudy
 Wind from NNW
Wind: NNW 17 mph , 28 km/h
Temperature: 4°C
Wind Chill: -1°C
Dew Point: -2°C
Humidity: 65%
Barometer: 1020 hPa
Summary: Light Snow
Clouds: Mostly cloudy
Visibility: 6 miles , 10 km
Cloud details: Partly cloudy 732 m
Mostly cloudy 914 m
2021/04/11 14:20 EGPD 111420Z 34015KT 9999 -SN SCT024 BKN030 04/M02 Q1020